ACA114 CYVR-CYYZ
Flight info
| Callsign | ACA114 |
|---|---|
| Flight time | 3h 52m |
| Altitude | 35000 |
| Route | DCT VIBTA DCT NOSOM DCT 4830N11500W DCT KU18Q DCT DIK DCT KP09A DCT KP03G DCT GRB DCT YZEMN NUBER6 |
| Aircraft | B77W/H-V/N |
Departure
| Time | 2026-05-07 17:20 |
|---|---|
| Airport | Vancouver International Airport (CYVR) |
Arrival
| Time | 2026-05-07 21:12 |
|---|---|
| Airport | Toronto Pearson International Airport (CYYZ) |
| Time | Latitude | Longitude | Altitude | Speed | Heading |
|---|---|---|---|---|---|
| 2026-05-07 16:43 | 49.19620 | -123.18391 | 29 ft | 0 kts | 185° |
| 2026-05-07 17:05 | 49.19638 | -123.18389 | 29 ft | 4 kts | 185° |
| 2026-05-07 17:06 | 49.19659 | -123.18386 | 29 ft | 4 kts | 194° |
| 2026-05-07 17:06 | 49.19679 | -123.18374 | 27 ft | 4 kts | 229° |
| 2026-05-07 17:06 | 49.19687 | -123.18351 | 29 ft | 4 kts | 271° |
| 2026-05-07 17:06 | 49.19684 | -123.18314 | 27 ft | 4 kts | 280° |
| 2026-05-07 17:07 | 49.19680 | -123.18282 | 27 ft | 0 kts | 280° |
| 2026-05-07 17:10 | 49.19681 | -123.18284 | 30 ft | 1 kts | 280° |
| 2026-05-07 17:10 | 49.19682 | -123.18296 | 30 ft | 2 kts | 280° |
| 2026-05-07 17:10 | 49.19685 | -123.18321 | 28 ft | 3 kts | 280° |
| 2026-05-07 17:11 | 49.19689 | -123.18361 | 30 ft | 5 kts | 280° |
| 2026-05-07 17:11 | 49.19696 | -123.18417 | 30 ft | 6 kts | 280° |
| 2026-05-07 17:11 | 49.19704 | -123.18490 | 30 ft | 8 kts | 280° |
| 2026-05-07 17:11 | 49.19714 | -123.18575 | 30 ft | 8 kts | 280° |
| 2026-05-07 17:12 | 49.19700 | -123.18658 | 30 ft | 8 kts | 224° |
| 2026-05-07 17:12 | 49.19643 | -123.18690 | 29 ft | 9 kts | 192° |
| 2026-05-07 17:12 | 49.19582 | -123.18707 | 29 ft | 9 kts | 190° |
| 2026-05-07 17:12 | 49.19521 | -123.18724 | 29 ft | 9 kts | 190° |
| 2026-05-07 17:13 | 49.19459 | -123.18740 | 29 ft | 9 kts | 189° |
| 2026-05-07 17:13 | 49.19402 | -123.18772 | 29 ft | 9 kts | 221° |
| 2026-05-07 17:13 | 49.19379 | -123.18860 | 29 ft | 9 kts | 259° |
| 2026-05-07 17:13 | 49.19367 | -123.18956 | 29 ft | 9 kts | 259° |
| 2026-05-07 17:14 | 49.19355 | -123.19052 | 29 ft | 9 kts | 259° |
| 2026-05-07 17:14 | 49.19344 | -123.19147 | 29 ft | 9 kts | 259° |
| 2026-05-07 17:14 | 49.19332 | -123.19243 | 29 ft | 9 kts | 259° |
| 2026-05-07 17:14 | 49.19320 | -123.19339 | 30 ft | 9 kts | 259° |
| 2026-05-07 17:15 | 49.19308 | -123.19435 | 30 ft | 9 kts | 259° |
| 2026-05-07 17:15 | 49.19297 | -123.19532 | 30 ft | 9 kts | 259° |
| 2026-05-07 17:15 | 49.19285 | -123.19628 | 30 ft | 9 kts | 259° |
| 2026-05-07 17:15 | 49.19272 | -123.19725 | 30 ft | 9 kts | 259° |
| 2026-05-07 17:16 | 49.19259 | -123.19833 | 30 ft | 12 kts | 259° |
| 2026-05-07 17:16 | 49.19243 | -123.19963 | 30 ft | 12 kts | 259° |
| 2026-05-07 17:16 | 49.19227 | -123.20094 | 30 ft | 12 kts | 259° |
| 2026-05-07 17:16 | 49.19211 | -123.20224 | 30 ft | 12 kts | 259° |
| 2026-05-07 17:17 | 49.19195 | -123.20355 | 30 ft | 12 kts | 259° |
| 2026-05-07 17:17 | 49.19181 | -123.20486 | 30 ft | 12 kts | 267° |
| 2026-05-07 17:17 | 49.19191 | -123.20617 | 30 ft | 12 kts | 279° |
| 2026-05-07 17:17 | 49.19199 | -123.20747 | 30 ft | 12 kts | 262° |
| 2026-05-07 17:18 | 49.19156 | -123.20824 | 30 ft | 9 kts | 205° |
| 2026-05-07 17:18 | 49.19092 | -123.20845 | 30 ft | 9 kts | 189° |
| 2026-05-07 17:18 | 49.19030 | -123.20820 | 30 ft | 10 kts | 140° |
| 2026-05-07 17:18 | 49.19006 | -123.20743 | 30 ft | 6 kts | 103° |
| 2026-05-07 17:19 | 49.19004 | -123.20726 | 30 ft | 0 kts | 101° |
| 2026-05-07 17:19 | 49.18999 | -123.20681 | 30 ft | 26 kts | 100° |
| 2026-05-07 17:19 | 49.18903 | -123.19847 | 30 ft | 131 kts | 99° |
| 2026-05-07 17:19 | 49.18702 | -123.18048 | 121 ft | 204 kts | 99° |
| 2026-05-07 17:20 | 49.18449 | -123.15891 | 1237 ft | 199 kts | 101° |
| 2026-05-07 17:20 | 49.18085 | -123.13991 | 2629 ft | 181 kts | 116° |
| 2026-05-07 17:20 | 49.17516 | -123.12247 | 3395 ft | 188 kts | 117° |
| 2026-05-07 17:20 | 49.16918 | -123.10363 | 3888 ft | 208 kts | 116° |
| 2026-05-07 17:21 | 49.16242 | -123.08278 | 4420 ft | 225 kts | 117° |
| 2026-05-07 17:21 | 49.15528 | -123.06041 | 4980 ft | 246 kts | 114° |
| 2026-05-07 17:21 | 49.15023 | -123.03409 | 5448 ft | 267 kts | 102° |
| 2026-05-07 17:21 | 49.14704 | -123.00619 | 6304 ft | 276 kts | 99° |
| 2026-05-07 17:22 | 49.14399 | -122.97650 | 7163 ft | 285 kts | 99° |
| 2026-05-07 17:22 | 49.14090 | -122.94637 | 8077 ft | 289 kts | 99° |
| 2026-05-07 17:22 | 49.13765 | -122.91567 | 8975 ft | 295 kts | 99° |
| 2026-05-07 17:22 | 49.13426 | -122.88439 | 9887 ft | 302 kts | 99° |
| 2026-05-07 17:23 | 49.13075 | -122.85271 | 10605 ft | 314 kts | 100° |
| 2026-05-07 17:23 | 49.12688 | -122.81838 | 10863 ft | 343 kts | 100° |
| 2026-05-07 17:23 | 49.12260 | -122.78091 | 11093 ft | 373 kts | 100° |
| 2026-05-07 17:23 | 49.11797 | -122.74078 | 11615 ft | 391 kts | 100° |
| 2026-05-07 17:24 | 49.11314 | -122.69925 | 12454 ft | 401 kts | 100° |
| 2026-05-07 17:24 | 49.10818 | -122.65698 | 13429 ft | 407 kts | 100° |
| 2026-05-07 17:24 | 49.10312 | -122.61406 | 14403 ft | 414 kts | 100° |
| 2026-05-07 17:24 | 49.09797 | -122.57050 | 15279 ft | 420 kts | 100° |
| 2026-05-07 17:25 | 49.09280 | -122.52681 | 16184 ft | 426 kts | 100° |
| 2026-05-07 17:25 | 49.08747 | -122.48196 | 17053 ft | 433 kts | 100° |
| 2026-05-07 17:25 | 49.08203 | -122.43642 | 17897 ft | 440 kts | 100° |
| 2026-05-07 17:25 | 49.07649 | -122.39020 | 18703 ft | 447 kts | 100° |
| 2026-05-07 17:26 | 49.07081 | -122.34307 | 19458 ft | 453 kts | 100° |
| 2026-05-07 17:26 | 49.06507 | -122.29562 | 20191 ft | 459 kts | 100° |
| 2026-05-07 17:26 | 49.05920 | -122.24733 | 20905 ft | 466 kts | 100° |
| 2026-05-07 17:26 | 49.05330 | -122.19892 | 21614 ft | 472 kts | 100° |
| 2026-05-07 17:27 | 49.04725 | -122.14944 | 22311 ft | 478 kts | 100° |
| 2026-05-07 17:27 | 49.04110 | -122.09928 | 23004 ft | 484 kts | 100° |
| 2026-05-07 17:27 | 49.03484 | -122.04848 | 23699 ft | 490 kts | 100° |
| 2026-05-07 17:27 | 49.02850 | -121.99710 | 24259 ft | 495 kts | 100° |
| 2026-05-07 17:28 | 49.02205 | -121.94514 | 24877 ft | 500 kts | 100° |
| 2026-05-07 17:28 | 49.01563 | -121.89357 | 25417 ft | 503 kts | 100° |
| 2026-05-07 17:28 | 49.00905 | -121.84102 | 25961 ft | 508 kts | 100° |
| 2026-05-07 17:28 | 49.00452 | -121.80496 | 26301 ft | 511 kts | 100° |
| 2026-05-07 17:29 | 48.99781 | -121.75171 | 26820 ft | 515 kts | 100° |
| 2026-05-07 17:29 | 48.98877 | -121.68029 | 27523 ft | 521 kts | 100° |
| 2026-05-07 17:29 | 48.98420 | -121.64429 | 27871 ft | 524 kts | 100° |
| 2026-05-07 17:29 | 48.97726 | -121.58966 | 28322 ft | 527 kts | 100° |
| 2026-05-07 17:30 | 48.96801 | -121.51631 | 28935 ft | 532 kts | 98° |
| 2026-05-07 17:30 | 48.96440 | -121.47926 | 29197 ft | 534 kts | 95° |
| 2026-05-07 17:30 | 48.96173 | -121.42278 | 29619 ft | 535 kts | 91° |
| 2026-05-07 17:30 | 48.96024 | -121.36597 | 30019 ft | 539 kts | 90° |
| 2026-05-07 17:31 | 48.95904 | -121.30889 | 30520 ft | 539 kts | 89° |
| 2026-05-07 17:31 | 48.95781 | -121.25183 | 31114 ft | 537 kts | 89° |
| 2026-05-07 17:31 | 48.95646 | -121.19520 | 31572 ft | 536 kts | 90° |
| 2026-05-07 17:31 | 48.95493 | -121.13828 | 32037 ft | 536 kts | 90° |
| 2026-05-07 17:32 | 48.95327 | -121.08161 | 32563 ft | 535 kts | 90° |
| 2026-05-07 17:32 | 48.95155 | -121.02596 | 33060 ft | 534 kts | 90° |
| 2026-05-07 17:32 | 48.94976 | -120.96939 | 33523 ft | 533 kts | 90° |
| 2026-05-07 17:32 | 48.94796 | -120.91308 | 33999 ft | 532 kts | 89° |
| 2026-05-07 17:33 | 48.94615 | -120.85687 | 34449 ft | 531 kts | 90° |
| 2026-05-07 17:33 | 48.94432 | -120.80066 | 34830 ft | 530 kts | 90° |
| 2026-05-07 17:33 | 48.94246 | -120.74452 | 35142 ft | 530 kts | 90° |
| 2026-05-07 17:33 | 48.94060 | -120.68928 | 35111 ft | 529 kts | 90° |
| 2026-05-07 17:34 | 48.93675 | -120.57735 | 35110 ft | 530 kts | 90° |
| 2026-05-07 17:34 | 48.93281 | -120.46522 | 35101 ft | 530 kts | 90° |
| 2026-05-07 17:35 | 48.92877 | -120.35306 | 35092 ft | 530 kts | 90° |
| 2026-05-07 17:35 | 48.92464 | -120.24187 | 35077 ft | 530 kts | 90° |
| 2026-05-07 17:36 | 48.92037 | -120.12930 | 35075 ft | 529 kts | 90° |
| 2026-05-07 17:36 | 48.91594 | -120.01847 | 35069 ft | 529 kts | 91° |
| 2026-05-07 17:37 | 48.90947 | -119.90667 | 35058 ft | 530 kts | 92° |
| 2026-05-07 17:37 | 48.90205 | -119.79507 | 35032 ft | 529 kts | 92° |
| 2026-05-07 17:38 | 48.89478 | -119.68434 | 35016 ft | 529 kts | 92° |
| 2026-05-07 17:38 | 48.88761 | -119.57315 | 35035 ft | 528 kts | 92° |
| 2026-05-07 17:39 | 48.88041 | -119.46185 | 35014 ft | 528 kts | 92° |
| 2026-05-07 17:39 | 48.87310 | -119.35058 | 35022 ft | 529 kts | 92° |
| 2026-05-07 17:40 | 48.86573 | -119.24011 | 35020 ft | 528 kts | 92° |
| 2026-05-07 17:40 | 48.85818 | -119.12914 | 35020 ft | 528 kts | 92° |
| 2026-05-07 17:41 | 48.85054 | -119.01815 | 35021 ft | 528 kts | 92° |
| 2026-05-07 17:41 | 48.84279 | -118.90710 | 35026 ft | 528 kts | 92° |
| 2026-05-07 17:42 | 48.83494 | -118.79617 | 35018 ft | 529 kts | 92° |
| 2026-05-07 17:42 | 48.82697 | -118.68519 | 35021 ft | 528 kts | 92° |
| 2026-05-07 17:43 | 48.81895 | -118.57509 | 35021 ft | 527 kts | 92° |
| 2026-05-07 17:43 | 48.81077 | -118.46420 | 35017 ft | 528 kts | 92° |
| 2026-05-07 17:44 | 48.80249 | -118.35347 | 35011 ft | 527 kts | 92° |
| 2026-05-07 17:44 | 48.79413 | -118.24304 | 35010 ft | 527 kts | 92° |
| 2026-05-07 17:45 | 48.78572 | -118.13317 | 35012 ft | 528 kts | 93° |
| 2026-05-07 17:45 | 48.77713 | -118.02265 | 35000 ft | 528 kts | 92° |
| 2026-05-07 17:46 | 48.76844 | -117.91204 | 35006 ft | 528 kts | 93° |
| 2026-05-07 17:46 | 48.75962 | -117.80147 | 35014 ft | 528 kts | 92° |
| 2026-05-07 17:47 | 48.75071 | -117.69087 | 35017 ft | 529 kts | 93° |
| 2026-05-07 17:47 | 48.74174 | -117.58084 | 35020 ft | 529 kts | 93° |
| 2026-05-07 17:48 | 48.73257 | -117.46993 | 35010 ft | 529 kts | 92° |
| 2026-05-07 17:48 | 48.72334 | -117.35954 | 35041 ft | 528 kts | 92° |
| 2026-05-07 17:49 | 48.71399 | -117.24890 | 35031 ft | 528 kts | 92° |
| 2026-05-07 17:49 | 48.70455 | -117.13863 | 35026 ft | 528 kts | 92° |
| 2026-05-07 17:50 | 48.69508 | -117.02930 | 35046 ft | 527 kts | 92° |
| 2026-05-07 17:50 | 48.68545 | -116.91916 | 35042 ft | 527 kts | 92° |
| 2026-05-07 17:51 | 48.67571 | -116.80907 | 35056 ft | 528 kts | 92° |
| 2026-05-07 17:51 | 48.66584 | -116.69851 | 35069 ft | 530 kts | 92° |
| 2026-05-07 17:52 | 48.65579 | -116.58771 | 35047 ft | 532 kts | 92° |
| 2026-05-07 17:52 | 48.64571 | -116.47761 | 35020 ft | 531 kts | 92° |
| 2026-05-07 17:53 | 48.63547 | -116.36702 | 35026 ft | 530 kts | 92° |
| 2026-05-07 17:53 | 48.62517 | -116.25657 | 35031 ft | 530 kts | 92° |
| 2026-05-07 17:54 | 48.61482 | -116.14697 | 34996 ft | 530 kts | 92° |
| 2026-05-07 17:54 | 48.60430 | -116.03679 | 34996 ft | 529 kts | 92° |
| 2026-05-07 17:55 | 48.59367 | -115.92657 | 34975 ft | 529 kts | 92° |
| 2026-05-07 17:55 | 48.58298 | -115.81703 | 34959 ft | 529 kts | 92° |
| 2026-05-07 17:56 | 48.57218 | -115.70710 | 34962 ft | 529 kts | 92° |
| 2026-05-07 17:56 | 48.56126 | -115.59722 | 34947 ft | 528 kts | 93° |
| 2026-05-07 17:57 | 48.55211 | -115.50617 | 34960 ft | 528 kts | 93° |
| 2026-05-07 17:57 | 48.53918 | -115.37832 | 34961 ft | 529 kts | 93° |
| 2026-05-07 17:58 | 48.52797 | -115.26890 | 34967 ft | 529 kts | 93° |
| 2026-05-07 17:58 | 48.51661 | -115.15900 | 34968 ft | 530 kts | 94° |
| 2026-05-07 17:59 | 48.50516 | -115.04906 | 34986 ft | 530 kts | 94° |
| 2026-05-07 17:59 | 48.49427 | -114.93978 | 34985 ft | 528 kts | 92° |
| 2026-05-07 18:00 | 48.48578 | -114.82998 | 34993 ft | 526 kts | 91° |
| 2026-05-07 18:00 | 48.47769 | -114.72032 | 35001 ft | 526 kts | 91° |
| 2026-05-07 18:01 | 48.46916 | -114.61055 | 35007 ft | 527 kts | 91° |
| 2026-05-07 18:01 | 48.46026 | -114.50089 | 35021 ft | 526 kts | 92° |
| 2026-05-07 18:02 | 48.44668 | -114.33731 | 35027 ft | 526 kts | 92° |
| 2026-05-07 18:03 | 48.43748 | -114.22786 | 35020 ft | 526 kts | 92° |
| 2026-05-07 18:03 | 48.42820 | -114.11853 | 35029 ft | 526 kts | 93° |
| 2026-05-07 18:04 | 48.41884 | -114.00934 | 35026 ft | 526 kts | 93° |
| 2026-05-07 18:04 | 48.40941 | -113.90079 | 35019 ft | 526 kts | 93° |
| 2026-05-07 18:05 | 48.39980 | -113.79142 | 35038 ft | 526 kts | 94° |
| 2026-05-07 18:05 | 48.39010 | -113.68204 | 35027 ft | 526 kts | 94° |
| 2026-05-07 18:06 | 48.38037 | -113.57354 | 35040 ft | 526 kts | 94° |
| 2026-05-07 18:06 | 48.37047 | -113.46445 | 35032 ft | 525 kts | 94° |
| 2026-05-07 18:07 | 48.36045 | -113.35538 | 35025 ft | 526 kts | 94° |
| 2026-05-07 18:07 | 48.35045 | -113.24735 | 35016 ft | 525 kts | 94° |
| 2026-05-07 18:08 | 48.34023 | -113.13828 | 35005 ft | 525 kts | 95° |
| 2026-05-07 18:08 | 48.33000 | -113.03006 | 34995 ft | 526 kts | 95° |
| 2026-05-07 18:09 | 48.31959 | -112.92125 | 34991 ft | 526 kts | 95° |
| 2026-05-07 18:09 | 48.30906 | -112.81238 | 34982 ft | 526 kts | 95° |
| 2026-05-07 18:10 | 48.29843 | -112.70338 | 34976 ft | 527 kts | 95° |
| 2026-05-07 18:10 | 48.28776 | -112.59516 | 34964 ft | 526 kts | 95° |
| 2026-05-07 18:11 | 48.27692 | -112.48625 | 34964 ft | 526 kts | 95° |
| 2026-05-07 18:11 | 48.26601 | -112.37774 | 34958 ft | 526 kts | 96° |
| 2026-05-07 18:12 | 48.25496 | -112.26892 | 34951 ft | 526 kts | 96° |
| 2026-05-07 18:12 | 48.24391 | -112.16110 | 34949 ft | 526 kts | 96° |
| 2026-05-07 18:13 | 48.23269 | -112.05271 | 34946 ft | 526 kts | 96° |
| 2026-05-07 18:13 | 48.22135 | -111.94414 | 34954 ft | 526 kts | 96° |
| 2026-05-07 18:14 | 48.20991 | -111.83565 | 34947 ft | 527 kts | 96° |
| 2026-05-07 18:14 | 48.19841 | -111.72764 | 34946 ft | 527 kts | 96° |
| 2026-05-07 18:15 | 48.18675 | -111.61915 | 34936 ft | 527 kts | 96° |
| 2026-05-07 18:15 | 48.17498 | -111.51059 | 34942 ft | 527 kts | 96° |
| 2026-05-07 18:16 | 48.16318 | -111.40275 | 34937 ft | 527 kts | 96° |
| 2026-05-07 18:16 | 48.15119 | -111.29419 | 34944 ft | 528 kts | 96° |
| 2026-05-07 18:17 | 48.13912 | -111.18585 | 34942 ft | 528 kts | 96° |
| 2026-05-07 18:17 | 48.12692 | -111.07729 | 34932 ft | 528 kts | 96° |
| 2026-05-07 18:18 | 48.11673 | -110.98730 | 34941 ft | 527 kts | 96° |
| 2026-05-07 18:18 | 48.10435 | -110.87897 | 34930 ft | 527 kts | 97° |
| 2026-05-07 18:19 | 48.09190 | -110.77090 | 34930 ft | 527 kts | 97° |
| 2026-05-07 18:19 | 48.07942 | -110.66343 | 34923 ft | 526 kts | 97° |
| 2026-05-07 18:20 | 48.06677 | -110.55556 | 34922 ft | 526 kts | 97° |
| 2026-05-07 18:20 | 48.05405 | -110.44785 | 34929 ft | 526 kts | 97° |
| 2026-05-07 18:21 | 48.04129 | -110.34076 | 34930 ft | 525 kts | 97° |
| 2026-05-07 18:21 | 48.02837 | -110.23321 | 34931 ft | 525 kts | 97° |
| 2026-05-07 18:22 | 48.01535 | -110.12571 | 34941 ft | 525 kts | 97° |
| 2026-05-07 18:22 | 48.00225 | -110.01828 | 34952 ft | 525 kts | 97° |
| 2026-05-07 18:23 | 47.98905 | -109.91144 | 34944 ft | 525 kts | 97° |
| 2026-05-07 18:23 | 47.97561 | -109.80399 | 34947 ft | 525 kts | 97° |
| 2026-05-07 18:24 | 47.96220 | -109.69747 | 34942 ft | 525 kts | 97° |
| 2026-05-07 18:24 | 47.94863 | -109.59039 | 34946 ft | 524 kts | 97° |
| 2026-05-07 18:25 | 47.93497 | -109.48340 | 34936 ft | 524 kts | 97° |
| 2026-05-07 18:25 | 47.92131 | -109.37723 | 34932 ft | 524 kts | 97° |
| 2026-05-07 18:26 | 47.90746 | -109.27044 | 34932 ft | 524 kts | 97° |
| 2026-05-07 18:26 | 47.89355 | -109.16392 | 34935 ft | 523 kts | 97° |
| 2026-05-07 18:27 | 47.87952 | -109.05737 | 34930 ft | 524 kts | 97° |
| 2026-05-07 18:27 | 47.86540 | -108.95097 | 34927 ft | 524 kts | 97° |
| 2026-05-07 18:28 | 47.85118 | -108.84457 | 34923 ft | 524 kts | 97° |
| 2026-05-07 18:28 | 47.83685 | -108.73811 | 34919 ft | 524 kts | 97° |
| 2026-05-07 18:29 | 47.82251 | -108.63241 | 34927 ft | 524 kts | 97° |
| 2026-05-07 18:29 | 47.80794 | -108.52586 | 34926 ft | 524 kts | 97° |
| 2026-05-07 18:30 | 47.79333 | -108.41968 | 34928 ft | 524 kts | 98° |
| 2026-05-07 18:30 | 47.77869 | -108.31409 | 34934 ft | 524 kts | 98° |
| 2026-05-07 18:31 | 47.76388 | -108.20804 | 34933 ft | 523 kts | 98° |
| 2026-05-07 18:31 | 47.74897 | -108.10204 | 34935 ft | 523 kts | 98° |
| 2026-05-07 18:32 | 47.73399 | -107.99625 | 34939 ft | 523 kts | 98° |
| 2026-05-07 18:32 | 47.71891 | -107.89052 | 34939 ft | 523 kts | 98° |
| 2026-05-07 18:33 | 47.70375 | -107.78499 | 34942 ft | 523 kts | 98° |
| 2026-05-07 18:33 | 47.68858 | -107.68012 | 34945 ft | 522 kts | 99° |
| 2026-05-07 18:34 | 47.67324 | -107.57479 | 34939 ft | 522 kts | 99° |
| 2026-05-07 18:34 | 47.65777 | -107.46933 | 34936 ft | 522 kts | 99° |
| 2026-05-07 18:35 | 47.64225 | -107.36422 | 34941 ft | 521 kts | 99° |
| 2026-05-07 18:35 | 47.62664 | -107.25917 | 34929 ft | 521 kts | 99° |
| 2026-05-07 18:36 | 47.61103 | -107.15483 | 34931 ft | 520 kts | 99° |
| 2026-05-07 18:36 | 47.59525 | -107.05008 | 34934 ft | 520 kts | 100° |
| 2026-05-07 18:37 | 47.57948 | -106.94611 | 34922 ft | 519 kts | 100° |
| 2026-05-07 18:37 | 47.56355 | -106.84179 | 34932 ft | 519 kts | 100° |
| 2026-05-07 18:38 | 47.54751 | -106.73734 | 34928 ft | 518 kts | 100° |
| 2026-05-07 18:38 | 47.53140 | -106.63316 | 34927 ft | 518 kts | 101° |
| 2026-05-07 18:39 | 47.51534 | -106.52996 | 34930 ft | 517 kts | 101° |
| 2026-05-07 18:39 | 47.49910 | -106.42632 | 34929 ft | 517 kts | 101° |
| 2026-05-07 18:40 | 47.48277 | -106.32271 | 34928 ft | 516 kts | 101° |
| 2026-05-07 18:40 | 47.46646 | -106.21992 | 34928 ft | 516 kts | 101° |
| 2026-05-07 18:41 | 47.45000 | -106.11674 | 34930 ft | 515 kts | 101° |
| 2026-05-07 18:41 | 47.43345 | -106.01369 | 34924 ft | 515 kts | 101° |
| 2026-05-07 18:42 | 47.41681 | -105.91077 | 34929 ft | 515 kts | 102° |
| 2026-05-07 18:42 | 47.40009 | -105.80795 | 34931 ft | 514 kts | 102° |
| 2026-05-07 18:43 | 47.38342 | -105.70606 | 34919 ft | 514 kts | 102° |
| 2026-05-07 18:43 | 47.36651 | -105.60336 | 34932 ft | 513 kts | 102° |
| 2026-05-07 18:44 | 47.34958 | -105.50111 | 34923 ft | 513 kts | 102° |
| 2026-05-07 18:44 | 47.33265 | -105.39952 | 34924 ft | 513 kts | 102° |
| 2026-05-07 18:45 | 47.31552 | -105.29728 | 34926 ft | 512 kts | 102° |
| 2026-05-07 18:45 | 47.29845 | -105.19599 | 34922 ft | 512 kts | 102° |
| 2026-05-07 18:46 | 47.28117 | -105.09412 | 34928 ft | 512 kts | 102° |
| 2026-05-07 18:46 | 47.26384 | -104.99251 | 34928 ft | 511 kts | 102° |
| 2026-05-07 18:47 | 47.24640 | -104.89086 | 34928 ft | 511 kts | 103° |
| 2026-05-07 18:47 | 47.22889 | -104.78938 | 34927 ft | 511 kts | 103° |
| 2026-05-07 18:48 | 47.21138 | -104.68851 | 34923 ft | 511 kts | 103° |
| 2026-05-07 18:48 | 47.19371 | -104.58725 | 34930 ft | 511 kts | 103° |
| 2026-05-07 18:49 | 47.17591 | -104.48586 | 34930 ft | 511 kts | 103° |
| 2026-05-07 18:49 | 47.15818 | -104.38545 | 34936 ft | 511 kts | 103° |
| 2026-05-07 18:50 | 47.14022 | -104.28432 | 34942 ft | 511 kts | 103° |
| 2026-05-07 18:50 | 47.12221 | -104.18344 | 34941 ft | 511 kts | 103° |
| 2026-05-07 18:51 | 47.10408 | -104.08247 | 34940 ft | 511 kts | 103° |
| 2026-05-07 18:51 | 47.08588 | -103.98162 | 34940 ft | 511 kts | 103° |
| 2026-05-07 18:52 | 47.06769 | -103.88141 | 34935 ft | 511 kts | 103° |
| 2026-05-07 18:52 | 47.04929 | -103.78061 | 34933 ft | 511 kts | 103° |
| 2026-05-07 18:53 | 47.03079 | -103.67986 | 34929 ft | 511 kts | 104° |
| 2026-05-07 18:53 | 47.01222 | -103.57924 | 34931 ft | 511 kts | 104° |
| 2026-05-07 18:54 | 46.99368 | -103.47929 | 34925 ft | 511 kts | 104° |
| 2026-05-07 18:54 | 46.97494 | -103.37886 | 34924 ft | 511 kts | 104° |
| 2026-05-07 18:55 | 46.95609 | -103.27836 | 34920 ft | 512 kts | 104° |
| 2026-05-07 18:55 | 46.93714 | -103.17783 | 34919 ft | 512 kts | 104° |
| 2026-05-07 18:56 | 46.91809 | -103.07733 | 34907 ft | 512 kts | 104° |
| 2026-05-07 18:56 | 46.89904 | -102.97734 | 34898 ft | 512 kts | 104° |
| 2026-05-07 18:57 | 46.87976 | -102.87662 | 34895 ft | 513 kts | 104° |
| 2026-05-07 18:57 | 46.86073 | -102.77673 | 34900 ft | 513 kts | 102° |
| 2026-05-07 18:58 | 46.84735 | -102.67459 | 34898 ft | 512 kts | 97° |
| 2026-05-07 18:58 | 46.83572 | -102.57179 | 34901 ft | 512 kts | 97° |
| 2026-05-07 18:59 | 46.82385 | -102.46904 | 34911 ft | 513 kts | 97° |
| 2026-05-07 18:59 | 46.81167 | -102.36694 | 34910 ft | 513 kts | 98° |
| 2026-05-07 19:00 | 46.79919 | -102.26411 | 34929 ft | 514 kts | 98° |
| 2026-05-07 19:00 | 46.78661 | -102.16132 | 34917 ft | 514 kts | 98° |
| 2026-05-07 19:01 | 46.77396 | -102.05850 | 34928 ft | 515 kts | 98° |
| 2026-05-07 19:01 | 46.76121 | -101.95564 | 34940 ft | 515 kts | 98° |
| 2026-05-07 19:02 | 46.74837 | -101.85284 | 34945 ft | 516 kts | 98° |
| 2026-05-07 19:02 | 46.73549 | -101.75055 | 34928 ft | 516 kts | 98° |
| 2026-05-07 19:03 | 46.72242 | -101.64755 | 34948 ft | 517 kts | 98° |
| 2026-05-07 19:03 | 46.70925 | -101.54443 | 34937 ft | 517 kts | 98° |
| 2026-05-07 19:04 | 46.69596 | -101.44126 | 34941 ft | 518 kts | 98° |
| 2026-05-07 19:04 | 46.68258 | -101.33809 | 34938 ft | 519 kts | 98° |
| 2026-05-07 19:05 | 46.66909 | -101.23485 | 34943 ft | 519 kts | 98° |
| 2026-05-07 19:05 | 46.65777 | -101.14883 | 34935 ft | 520 kts | 98° |
| 2026-05-07 19:06 | 46.64184 | -101.02858 | 34932 ft | 520 kts | 98° |
| 2026-05-07 19:06 | 46.62340 | -100.89069 | 34923 ft | 521 kts | 98° |
| 2026-05-07 19:07 | 46.60943 | -100.78712 | 34918 ft | 521 kts | 98° |
| 2026-05-07 19:07 | 46.59536 | -100.68356 | 34920 ft | 522 kts | 98° |
| 2026-05-07 19:08 | 46.58128 | -100.58064 | 34929 ft | 522 kts | 98° |
| 2026-05-07 19:08 | 46.56701 | -100.47711 | 34939 ft | 522 kts | 98° |
| 2026-05-07 19:09 | 46.55265 | -100.37360 | 34945 ft | 522 kts | 98° |
| 2026-05-07 19:09 | 46.53817 | -100.26990 | 34943 ft | 523 kts | 98° |
| 2026-05-07 19:10 | 46.52365 | -100.16673 | 34945 ft | 523 kts | 98° |
| 2026-05-07 19:10 | 46.50900 | -100.06318 | 34948 ft | 524 kts | 98° |
| 2026-05-07 19:11 | 46.49426 | -99.95941 | 34942 ft | 524 kts | 97° |
| 2026-05-07 19:11 | 46.47991 | -99.85626 | 34941 ft | 524 kts | 97° |
| 2026-05-07 19:12 | 46.46550 | -99.75248 | 34944 ft | 524 kts | 97° |
| 2026-05-07 19:12 | 46.45104 | -99.64921 | 34936 ft | 524 kts | 97° |
| 2026-05-07 19:13 | 46.43636 | -99.54548 | 34937 ft | 525 kts | 97° |
| 2026-05-07 19:13 | 46.42157 | -99.44187 | 34926 ft | 525 kts | 97° |
| 2026-05-07 19:14 | 46.40669 | -99.33822 | 34933 ft | 525 kts | 97° |
| 2026-05-07 19:14 | 46.39172 | -99.23462 | 34936 ft | 525 kts | 98° |
| 2026-05-07 19:15 | 46.37665 | -99.13107 | 34937 ft | 525 kts | 98° |
| 2026-05-07 19:15 | 46.36154 | -99.02800 | 34939 ft | 526 kts | 98° |
| 2026-05-07 19:16 | 46.34627 | -98.92447 | 34941 ft | 526 kts | 98° |
| 2026-05-07 19:16 | 46.33089 | -98.82085 | 34941 ft | 526 kts | 98° |
| 2026-05-07 19:17 | 46.31541 | -98.71730 | 34942 ft | 526 kts | 98° |
| 2026-05-07 19:17 | 46.29992 | -98.61435 | 34932 ft | 526 kts | 98° |
| 2026-05-07 19:18 | 46.28428 | -98.51105 | 34950 ft | 526 kts | 98° |
| 2026-05-07 19:18 | 46.26850 | -98.40753 | 34945 ft | 526 kts | 98° |
| 2026-05-07 19:19 | 46.25263 | -98.30406 | 34952 ft | 527 kts | 98° |
| 2026-05-07 19:19 | 46.23677 | -98.20135 | 34952 ft | 527 kts | 98° |
| 2026-05-07 19:20 | 46.22064 | -98.09758 | 34944 ft | 528 kts | 98° |
| 2026-05-07 19:20 | 46.20448 | -97.99425 | 34938 ft | 528 kts | 98° |
| 2026-05-07 19:21 | 46.18821 | -97.89085 | 34931 ft | 528 kts | 98° |
| 2026-05-07 19:21 | 46.17192 | -97.78798 | 34919 ft | 528 kts | 98° |
| 2026-05-07 19:22 | 46.15543 | -97.68453 | 34919 ft | 529 kts | 98° |
| 2026-05-07 19:22 | 46.13884 | -97.58107 | 34917 ft | 529 kts | 98° |
| 2026-05-07 19:23 | 46.12213 | -97.47751 | 34930 ft | 529 kts | 98° |
| 2026-05-07 19:23 | 46.10545 | -97.37477 | 34926 ft | 530 kts | 98° |
| 2026-05-07 19:24 | 46.08851 | -97.27107 | 34941 ft | 531 kts | 98° |
| 2026-05-07 19:24 | 46.07150 | -97.16761 | 34945 ft | 531 kts | 98° |
| 2026-05-07 19:25 | 46.05435 | -97.06390 | 34948 ft | 532 kts | 98° |
| 2026-05-07 19:25 | 46.03719 | -96.96077 | 34947 ft | 532 kts | 98° |
| 2026-05-07 19:26 | 46.01981 | -96.85694 | 34931 ft | 532 kts | 98° |
| 2026-05-07 19:26 | 46.00248 | -96.75405 | 34930 ft | 532 kts | 98° |
| 2026-05-07 19:27 | 45.98494 | -96.65048 | 34944 ft | 532 kts | 98° |
| 2026-05-07 19:27 | 45.96731 | -96.54703 | 34948 ft | 533 kts | 98° |
| 2026-05-07 19:28 | 45.94963 | -96.44389 | 34944 ft | 533 kts | 98° |
| 2026-05-07 19:28 | 45.93180 | -96.34049 | 34940 ft | 533 kts | 99° |
| 2026-05-07 19:29 | 45.91387 | -96.23715 | 34952 ft | 533 kts | 99° |
| 2026-05-07 19:29 | 45.89586 | -96.13388 | 34952 ft | 533 kts | 99° |
| 2026-05-07 19:30 | 45.87777 | -96.03077 | 34951 ft | 533 kts | 99° |
| 2026-05-07 19:30 | 45.85954 | -95.92746 | 34949 ft | 533 kts | 99° |
| 2026-05-07 19:31 | 45.84136 | -95.82505 | 34952 ft | 533 kts | 99° |
| 2026-05-07 19:31 | 45.82298 | -95.72210 | 34948 ft | 533 kts | 99° |
| 2026-05-07 19:32 | 45.80447 | -95.61901 | 34940 ft | 533 kts | 99° |
| 2026-05-07 19:32 | 45.78589 | -95.51604 | 34932 ft | 533 kts | 99° |
| 2026-05-07 19:33 | 45.76719 | -95.41309 | 34930 ft | 534 kts | 99° |
| 2026-05-07 19:33 | 45.74841 | -95.31019 | 34922 ft | 534 kts | 100° |
| 2026-05-07 19:34 | 45.72962 | -95.20780 | 34924 ft | 534 kts | 100° |
| 2026-05-07 19:34 | 45.71063 | -95.10495 | 34930 ft | 534 kts | 100° |
| 2026-05-07 19:35 | 45.69155 | -95.00221 | 34937 ft | 535 kts | 100° |
| 2026-05-07 19:35 | 45.67234 | -94.89931 | 34938 ft | 535 kts | 101° |
| 2026-05-07 19:36 | 45.65318 | -94.79723 | 34945 ft | 535 kts | 101° |
| 2026-05-07 19:36 | 45.63377 | -94.69435 | 34926 ft | 535 kts | 101° |
| 2026-05-07 19:37 | 45.61430 | -94.59177 | 34932 ft | 535 kts | 101° |
| 2026-05-07 19:37 | 45.59472 | -94.48910 | 34936 ft | 535 kts | 101° |
| 2026-05-07 19:38 | 45.57500 | -94.38628 | 34929 ft | 536 kts | 101° |
| 2026-05-07 19:38 | 45.55533 | -94.28426 | 34930 ft | 536 kts | 101° |
| 2026-05-07 19:39 | 45.53546 | -94.18169 | 34930 ft | 536 kts | 102° |
| 2026-05-07 19:39 | 45.51546 | -94.07901 | 34933 ft | 537 kts | 102° |
| 2026-05-07 19:40 | 45.49618 | -93.97611 | 34928 ft | 535 kts | 98° |
| 2026-05-07 19:40 | 45.48192 | -93.87290 | 34940 ft | 534 kts | 96° |
| 2026-05-07 19:41 | 45.46820 | -93.76884 | 34935 ft | 534 kts | 97° |
| 2026-05-07 19:41 | 45.45419 | -93.66493 | 34931 ft | 534 kts | 97° |
| 2026-05-07 19:42 | 45.43982 | -93.56104 | 34934 ft | 535 kts | 97° |
| 2026-05-07 19:42 | 45.42537 | -93.45775 | 34937 ft | 535 kts | 97° |
| 2026-05-07 19:43 | 45.41074 | -93.35390 | 34937 ft | 535 kts | 98° |
| 2026-05-07 19:43 | 45.39602 | -93.25008 | 34936 ft | 535 kts | 98° |
| 2026-05-07 19:44 | 45.38124 | -93.14638 | 34935 ft | 535 kts | 98° |
| 2026-05-07 19:44 | 45.36636 | -93.04272 | 34934 ft | 534 kts | 98° |
| 2026-05-07 19:45 | 45.35141 | -92.93927 | 34961 ft | 534 kts | 98° |
| 2026-05-07 19:45 | 45.33647 | -92.83665 | 34963 ft | 533 kts | 98° |
| 2026-05-07 19:46 | 45.32135 | -92.73341 | 34968 ft | 533 kts | 98° |
| 2026-05-07 19:46 | 45.30613 | -92.63018 | 34967 ft | 533 kts | 99° |
| 2026-05-07 19:47 | 45.29081 | -92.52696 | 34964 ft | 533 kts | 99° |
| 2026-05-07 19:47 | 45.27548 | -92.42443 | 34946 ft | 533 kts | 99° |
| 2026-05-07 19:48 | 45.25999 | -92.32143 | 34951 ft | 533 kts | 99° |
| 2026-05-07 19:48 | 45.24437 | -92.21826 | 34947 ft | 533 kts | 99° |
| 2026-05-07 19:49 | 45.22879 | -92.11600 | 34943 ft | 533 kts | 99° |
| 2026-05-07 19:49 | 45.21302 | -92.01320 | 34949 ft | 533 kts | 99° |
| 2026-05-07 19:50 | 45.19716 | -91.91041 | 34948 ft | 533 kts | 100° |
| 2026-05-07 19:50 | 45.18130 | -91.80832 | 34944 ft | 533 kts | 100° |
| 2026-05-07 19:51 | 45.16526 | -91.70568 | 34942 ft | 533 kts | 100° |
| 2026-05-07 19:51 | 45.14913 | -91.60314 | 34944 ft | 533 kts | 100° |
| 2026-05-07 19:52 | 45.13291 | -91.50065 | 34941 ft | 532 kts | 100° |
| 2026-05-07 19:52 | 45.11661 | -91.39827 | 34937 ft | 532 kts | 101° |
| 2026-05-07 19:53 | 45.10033 | -91.29665 | 34940 ft | 532 kts | 101° |
| 2026-05-07 19:53 | 45.08384 | -91.19440 | 34944 ft | 532 kts | 101° |
| 2026-05-07 19:54 | 45.07009 | -91.10959 | 34946 ft | 532 kts | 101° |
| 2026-05-07 19:54 | 45.05347 | -91.00766 | 34943 ft | 532 kts | 101° |
| 2026-05-07 19:55 | 45.03676 | -90.90578 | 34949 ft | 531 kts | 101° |
| 2026-05-07 19:55 | 45.02008 | -90.80462 | 34945 ft | 531 kts | 101° |
| 2026-05-07 19:56 | 45.00321 | -90.70299 | 34939 ft | 531 kts | 101° |
| 2026-05-07 19:56 | 44.98623 | -90.60127 | 34936 ft | 531 kts | 102° |
| 2026-05-07 19:57 | 44.96918 | -90.49978 | 34935 ft | 531 kts | 102° |
| 2026-05-07 19:57 | 44.95204 | -90.39832 | 34931 ft | 531 kts | 102° |
| 2026-05-07 19:58 | 44.93493 | -90.29757 | 34931 ft | 531 kts | 102° |
| 2026-05-07 19:58 | 44.91759 | -90.19611 | 34934 ft | 531 kts | 102° |
| 2026-05-07 19:59 | 44.90015 | -90.09465 | 34939 ft | 532 kts | 102° |
| 2026-05-07 19:59 | 44.88262 | -89.99327 | 34938 ft | 532 kts | 102° |
| 2026-05-07 20:00 | 44.86501 | -89.89197 | 34936 ft | 532 kts | 102° |
| 2026-05-07 20:00 | 44.84727 | -89.79052 | 34932 ft | 532 kts | 103° |
| 2026-05-07 20:01 | 44.82959 | -89.68997 | 34926 ft | 533 kts | 103° |
| 2026-05-07 20:01 | 44.81164 | -89.58846 | 34927 ft | 533 kts | 103° |
| 2026-05-07 20:02 | 44.79363 | -89.48717 | 34931 ft | 533 kts | 103° |
| 2026-05-07 20:02 | 44.77551 | -89.38582 | 34938 ft | 533 kts | 103° |
| 2026-05-07 20:03 | 44.75742 | -89.28521 | 34938 ft | 533 kts | 103° |
| 2026-05-07 20:03 | 44.73913 | -89.18404 | 34940 ft | 533 kts | 103° |
| 2026-05-07 20:04 | 44.72069 | -89.08265 | 34941 ft | 533 kts | 103° |
| 2026-05-07 20:04 | 44.70220 | -88.98150 | 34935 ft | 533 kts | 104° |
| 2026-05-07 20:05 | 44.68376 | -88.88119 | 34923 ft | 533 kts | 104° |
| 2026-05-07 20:05 | 44.66509 | -88.78012 | 34950 ft | 533 kts | 104° |
| 2026-05-07 20:06 | 44.64634 | -88.67921 | 34941 ft | 533 kts | 104° |
| 2026-05-07 20:06 | 44.62762 | -88.57897 | 34938 ft | 533 kts | 104° |
| 2026-05-07 20:07 | 44.60870 | -88.47825 | 34940 ft | 533 kts | 104° |
| 2026-05-07 20:07 | 44.58972 | -88.37769 | 34933 ft | 533 kts | 104° |
| 2026-05-07 20:08 | 44.57066 | -88.27714 | 34923 ft | 533 kts | 104° |
| 2026-05-07 20:08 | 44.55111 | -88.17759 | 34931 ft | 533 kts | 108° |
| 2026-05-07 20:09 | 44.52685 | -88.07935 | 34924 ft | 533 kts | 110° |
| 2026-05-07 20:10 | 44.48910 | -87.93248 | 34931 ft | 533 kts | 110° |
| 2026-05-07 20:10 | 44.46416 | -87.83460 | 34931 ft | 534 kts | 110° |
| 2026-05-07 20:11 | 44.43928 | -87.73665 | 34934 ft | 534 kts | 110° |
| 2026-05-07 20:11 | 44.41444 | -87.63919 | 34944 ft | 534 kts | 110° |
| 2026-05-07 20:12 | 44.38938 | -87.54134 | 34951 ft | 534 kts | 110° |
| 2026-05-07 20:12 | 44.36417 | -87.44340 | 34941 ft | 534 kts | 110° |
| 2026-05-07 20:13 | 44.33909 | -87.34638 | 34950 ft | 533 kts | 110° |
| 2026-05-07 20:13 | 44.31383 | -87.24903 | 34952 ft | 533 kts | 110° |
| 2026-05-07 20:14 | 44.28837 | -87.15135 | 34951 ft | 534 kts | 110° |
| 2026-05-07 20:14 | 44.26287 | -87.05389 | 34953 ft | 534 kts | 111° |
| 2026-05-07 20:15 | 44.23741 | -86.95700 | 34936 ft | 535 kts | 111° |
| 2026-05-07 20:15 | 44.21169 | -86.85955 | 34963 ft | 535 kts | 111° |
| 2026-05-07 20:16 | 44.18588 | -86.76210 | 34959 ft | 535 kts | 111° |
| 2026-05-07 20:16 | 44.16013 | -86.66532 | 34966 ft | 536 kts | 111° |
| 2026-05-07 20:17 | 44.13415 | -86.56804 | 34975 ft | 536 kts | 111° |
| 2026-05-07 20:17 | 44.10806 | -86.47073 | 34966 ft | 536 kts | 111° |
| 2026-05-07 20:18 | 44.08186 | -86.37342 | 34967 ft | 536 kts | 111° |
| 2026-05-07 20:18 | 44.05563 | -86.27637 | 34972 ft | 536 kts | 112° |
| 2026-05-07 20:19 | 44.02947 | -86.18001 | 34971 ft | 536 kts | 112° |
| 2026-05-07 20:19 | 44.00305 | -86.08305 | 34969 ft | 536 kts | 112° |
| 2026-05-07 20:20 | 43.97658 | -85.98629 | 34972 ft | 536 kts | 112° |
| 2026-05-07 20:20 | 43.95003 | -85.88965 | 34965 ft | 536 kts | 112° |
| 2026-05-07 20:21 | 43.92342 | -85.79314 | 34956 ft | 536 kts | 112° |
| 2026-05-07 20:21 | 43.89663 | -85.69639 | 34956 ft | 536 kts | 112° |
| 2026-05-07 20:22 | 43.86999 | -85.60054 | 34948 ft | 537 kts | 112° |
| 2026-05-07 20:22 | 43.84299 | -85.50379 | 34949 ft | 537 kts | 113° |
| 2026-05-07 20:23 | 43.81590 | -85.40707 | 34947 ft | 538 kts | 113° |
| 2026-05-07 20:23 | 43.78893 | -85.31116 | 34952 ft | 538 kts | 113° |
| 2026-05-07 20:24 | 43.76165 | -85.21453 | 34954 ft | 538 kts | 113° |
| 2026-05-07 20:24 | 43.73432 | -85.11809 | 34958 ft | 538 kts | 113° |
| 2026-05-07 20:25 | 43.70689 | -85.02168 | 34942 ft | 538 kts | 113° |
| 2026-05-07 20:25 | 43.67938 | -84.92533 | 34930 ft | 538 kts | 114° |
| 2026-05-07 20:26 | 43.65195 | -84.82968 | 34926 ft | 539 kts | 114° |
| 2026-05-07 20:26 | 43.62427 | -84.73345 | 34926 ft | 539 kts | 114° |
| 2026-05-07 20:27 | 43.59684 | -84.63709 | 34925 ft | 540 kts | 111° |
| 2026-05-07 20:27 | 43.57920 | -84.53631 | 34939 ft | 542 kts | 99° |
| 2026-05-07 20:28 | 43.57392 | -84.43227 | 34943 ft | 543 kts | 91° |
| 2026-05-07 20:28 | 43.57337 | -84.32870 | 34934 ft | 544 kts | 90° |
| 2026-05-07 20:29 | 43.57273 | -84.22426 | 34938 ft | 544 kts | 91° |
| 2026-05-07 20:29 | 43.57151 | -84.11986 | 34954 ft | 544 kts | 91° |
| 2026-05-07 20:30 | 43.56996 | -84.01530 | 34954 ft | 545 kts | 91° |
| 2026-05-07 20:30 | 43.56829 | -83.91066 | 34955 ft | 545 kts | 91° |
| 2026-05-07 20:31 | 43.56658 | -83.80686 | 34935 ft | 545 kts | 91° |
| 2026-05-07 20:31 | 43.56478 | -83.70234 | 34939 ft | 545 kts | 92° |
| 2026-05-07 20:32 | 43.56290 | -83.59785 | 34939 ft | 545 kts | 92° |
| 2026-05-07 20:32 | 43.56091 | -83.49323 | 34936 ft | 545 kts | 92° |
| 2026-05-07 20:33 | 43.55882 | -83.38868 | 34934 ft | 545 kts | 92° |
| 2026-05-07 20:33 | 43.55665 | -83.28469 | 34937 ft | 545 kts | 92° |
| 2026-05-07 20:34 | 43.55438 | -83.18011 | 34933 ft | 545 kts | 92° |
| 2026-05-07 20:34 | 43.55201 | -83.07568 | 34938 ft | 545 kts | 92° |
| 2026-05-07 20:35 | 43.54955 | -82.97123 | 34938 ft | 545 kts | 92° |
| 2026-05-07 20:35 | 43.54699 | -82.86678 | 34937 ft | 545 kts | 92° |
| 2026-05-07 20:36 | 43.54433 | -82.76212 | 34935 ft | 546 kts | 93° |
| 2026-05-07 20:36 | 43.54159 | -82.65795 | 34938 ft | 546 kts | 93° |
| 2026-05-07 20:37 | 43.53873 | -82.55323 | 34940 ft | 546 kts | 93° |
| 2026-05-07 20:37 | 43.53579 | -82.44846 | 34939 ft | 547 kts | 93° |
| 2026-05-07 20:38 | 43.53276 | -82.34433 | 34943 ft | 547 kts | 93° |
| 2026-05-07 20:38 | 43.52961 | -82.23934 | 34945 ft | 547 kts | 94° |
| 2026-05-07 20:39 | 43.52637 | -82.13437 | 34945 ft | 548 kts | 94° |
| 2026-05-07 20:39 | 43.52303 | -82.02943 | 34952 ft | 548 kts | 94° |
| 2026-05-07 20:40 | 43.51962 | -81.92513 | 34958 ft | 549 kts | 94° |
| 2026-05-07 20:40 | 43.51608 | -81.81990 | 34957 ft | 549 kts | 94° |
| 2026-05-07 20:41 | 43.51305 | -81.73219 | 34957 ft | 550 kts | 94° |
| 2026-05-07 20:41 | 43.50939 | -81.62806 | 34621 ft | 536 kts | 94° |
| 2026-05-07 20:41 | 43.50756 | -81.57687 | 33998 ft | 535 kts | 95° |
| 2026-05-07 20:42 | 43.50567 | -81.52540 | 33036 ft | 538 kts | 95° |
| 2026-05-07 20:42 | 43.50375 | -81.47365 | 32065 ft | 541 kts | 95° |
| 2026-05-07 20:42 | 43.50180 | -81.42178 | 31157 ft | 542 kts | 95° |
| 2026-05-07 20:42 | 43.49986 | -81.37053 | 30293 ft | 542 kts | 95° |
| 2026-05-07 20:43 | 43.49788 | -81.31871 | 29391 ft | 539 kts | 95° |
| 2026-05-07 20:43 | 43.49590 | -81.26734 | 28718 ft | 531 kts | 95° |
| 2026-05-07 20:43 | 43.49394 | -81.21697 | 28184 ft | 521 kts | 95° |
| 2026-05-07 20:43 | 43.49199 | -81.16743 | 27596 ft | 513 kts | 95° |
| 2026-05-07 20:44 | 43.49005 | -81.11872 | 26969 ft | 506 kts | 95° |
| 2026-05-07 20:44 | 43.48810 | -81.07049 | 26344 ft | 500 kts | 95° |
| 2026-05-07 20:44 | 43.48617 | -81.02352 | 25769 ft | 494 kts | 95° |
| 2026-05-07 20:44 | 43.48423 | -80.97666 | 25205 ft | 487 kts | 95° |
| 2026-05-07 20:45 | 43.48229 | -80.93021 | 24649 ft | 481 kts | 95° |
| 2026-05-07 20:45 | 43.48036 | -80.88434 | 24111 ft | 475 kts | 95° |
| 2026-05-07 20:45 | 43.47844 | -80.83918 | 23572 ft | 469 kts | 95° |
| 2026-05-07 20:45 | 43.47653 | -80.79467 | 22948 ft | 464 kts | 95° |
| 2026-05-07 20:46 | 43.47462 | -80.75054 | 22275 ft | 460 kts | 95° |
| 2026-05-07 20:46 | 43.47270 | -80.70677 | 21596 ft | 456 kts | 95° |
| 2026-05-07 20:46 | 43.47078 | -80.66339 | 20941 ft | 452 kts | 95° |
| 2026-05-07 20:46 | 43.46887 | -80.62031 | 20337 ft | 449 kts | 95° |
| 2026-05-07 20:47 | 43.46695 | -80.57760 | 19740 ft | 445 kts | 95° |
| 2026-05-07 20:47 | 43.46504 | -80.53530 | 19156 ft | 441 kts | 95° |
| 2026-05-07 20:47 | 43.46316 | -80.49381 | 18597 ft | 438 kts | 95° |
| 2026-05-07 20:47 | 43.46125 | -80.45211 | 18033 ft | 434 kts | 95° |
| 2026-05-07 20:48 | 43.45933 | -80.41067 | 17427 ft | 430 kts | 95° |
| 2026-05-07 20:48 | 43.45985 | -80.36997 | 16714 ft | 427 kts | 80° |
| 2026-05-07 20:48 | 43.46929 | -80.33213 | 16485 ft | 406 kts | 65° |
| 2026-05-07 20:48 | 43.48023 | -80.29680 | 16389 ft | 394 kts | 67° |
| 2026-05-07 20:49 | 43.49006 | -80.26244 | 15964 ft | 391 kts | 68° |
| 2026-05-07 20:49 | 43.49983 | -80.22717 | 15233 ft | 397 kts | 68° |
| 2026-05-07 20:49 | 43.50971 | -80.19142 | 14617 ft | 399 kts | 68° |
| 2026-05-07 20:49 | 43.51944 | -80.15558 | 14053 ft | 399 kts | 69° |
| 2026-05-07 20:50 | 43.52904 | -80.11954 | 13459 ft | 399 kts | 69° |
| 2026-05-07 20:50 | 43.53858 | -80.08359 | 12864 ft | 398 kts | 69° |
| 2026-05-07 20:50 | 43.54791 | -80.04844 | 12579 ft | 389 kts | 69° |
| 2026-05-07 20:50 | 43.55704 | -80.01404 | 12483 ft | 375 kts | 69° |
| 2026-05-07 20:51 | 43.56587 | -79.98076 | 12395 ft | 362 kts | 69° |
| 2026-05-07 20:51 | 43.57438 | -79.94872 | 12314 ft | 350 kts | 69° |
| 2026-05-07 20:51 | 43.58262 | -79.91765 | 12210 ft | 339 kts | 69° |
| 2026-05-07 20:51 | 43.59059 | -79.88757 | 12157 ft | 329 kts | 69° |
| 2026-05-07 20:52 | 43.59580 | -79.85754 | 11986 ft | 318 kts | 87° |
| 2026-05-07 20:52 | 43.59594 | -79.82740 | 11870 ft | 310 kts | 91° |
| 2026-05-07 20:52 | 43.59575 | -79.79827 | 11686 ft | 305 kts | 91° |
| 2026-05-07 20:52 | 43.59569 | -79.76912 | 11424 ft | 303 kts | 90° |
| 2026-05-07 20:53 | 43.59575 | -79.74009 | 11153 ft | 302 kts | 90° |
| 2026-05-07 20:53 | 43.59591 | -79.71136 | 10992 ft | 295 kts | 90° |
| 2026-05-07 20:53 | 43.59610 | -79.68349 | 10930 ft | 286 kts | 90° |
| 2026-05-07 20:53 | 43.59629 | -79.65636 | 10859 ft | 278 kts | 90° |
| 2026-05-07 20:54 | 43.59646 | -79.63001 | 10760 ft | 270 kts | 90° |
| 2026-05-07 20:54 | 43.59652 | -79.60438 | 10604 ft | 264 kts | 90° |
| 2026-05-07 20:54 | 43.59657 | -79.57909 | 10377 ft | 263 kts | 90° |
| 2026-05-07 20:54 | 43.59711 | -79.55425 | 10034 ft | 261 kts | 79° |
| 2026-05-07 20:55 | 43.60465 | -79.53165 | 9494 ft | 263 kts | 46° |
| 2026-05-07 20:55 | 43.61731 | -79.51318 | 8928 ft | 270 kts | 43° |
| 2026-05-07 20:55 | 43.63049 | -79.49422 | 8261 ft | 275 kts | 44° |
| 2026-05-07 20:55 | 43.64370 | -79.47508 | 7601 ft | 275 kts | 44° |
| 2026-05-07 20:56 | 43.65687 | -79.45595 | 7008 ft | 272 kts | 44° |
| 2026-05-07 20:56 | 43.66982 | -79.43710 | 6469 ft | 268 kts | 44° |
| 2026-05-07 20:56 | 43.68252 | -79.41858 | 5883 ft | 262 kts | 44° |
| 2026-05-07 20:56 | 43.69473 | -79.40074 | 5324 ft | 255 kts | 44° |
| 2026-05-07 20:57 | 43.70675 | -79.38319 | 4811 ft | 248 kts | 44° |
| 2026-05-07 20:57 | 43.71847 | -79.36605 | 4279 ft | 242 kts | 44° |
| 2026-05-07 20:57 | 43.72965 | -79.34969 | 4041 ft | 227 kts | 44° |
| 2026-05-07 20:57 | 43.74148 | -79.33571 | 3992 ft | 222 kts | 21° |
| 2026-05-07 20:58 | 43.75708 | -79.33203 | 4048 ft | 244 kts | 349° |
| 2026-05-07 20:58 | 43.77430 | -79.34111 | 4138 ft | 290 kts | 326° |
| 2026-05-07 20:58 | 43.79284 | -79.35550 | 4177 ft | 332 kts | 338° |
| 2026-05-07 20:58 | 43.81619 | -79.36498 | 4285 ft | 365 kts | 339° |
| 2026-05-07 20:59 | 43.84010 | -79.38067 | 4886 ft | 393 kts | 327° |
| 2026-05-07 20:59 | 43.86209 | -79.40391 | 6036 ft | 396 kts | 315° |
| 2026-05-07 20:59 | 43.87918 | -79.43083 | 7350 ft | 343 kts | 303° |
| 2026-05-07 20:59 | 43.88885 | -79.45812 | 8276 ft | 294 kts | 283° |
| 2026-05-07 21:00 | 43.89000 | -79.48454 | 8494 ft | 271 kts | 260° |
| 2026-05-07 21:00 | 43.88302 | -79.50870 | 8088 ft | 270 kts | 238° |
| 2026-05-07 21:00 | 43.87140 | -79.52949 | 7309 ft | 285 kts | 231° |
| 2026-05-07 21:00 | 43.85806 | -79.55060 | 6611 ft | 295 kts | 230° |
| 2026-05-07 21:01 | 43.84433 | -79.57182 | 6149 ft | 295 kts | 230° |
| 2026-05-07 21:01 | 43.83063 | -79.59283 | 5814 ft | 290 kts | 229° |
| 2026-05-07 21:01 | 43.81500 | -79.60975 | 5445 ft | 289 kts | 207° |
| 2026-05-07 21:01 | 43.79534 | -79.61575 | 5124 ft | 294 kts | 181° |
| 2026-05-07 21:02 | 43.77583 | -79.60890 | 5046 ft | 289 kts | 154° |
| 2026-05-07 21:02 | 43.75973 | -79.59310 | 4995 ft | 278 kts | 142° |
| 2026-05-07 21:02 | 43.74562 | -79.57606 | 4987 ft | 266 kts | 140° |
| 2026-05-07 21:02 | 43.73221 | -79.55930 | 4991 ft | 254 kts | 140° |
| 2026-05-07 21:03 | 43.71935 | -79.54317 | 4981 ft | 246 kts | 140° |
| 2026-05-07 21:03 | 43.70668 | -79.52730 | 5000 ft | 245 kts | 140° |
| 2026-05-07 21:03 | 43.69407 | -79.51144 | 4988 ft | 244 kts | 140° |
| 2026-05-07 21:03 | 43.68153 | -79.49559 | 4999 ft | 243 kts | 140° |
| 2026-05-07 21:04 | 43.66910 | -79.47976 | 5007 ft | 242 kts | 137° |
| 2026-05-07 21:04 | 43.65993 | -79.46050 | 5003 ft | 245 kts | 107° |
| 2026-05-07 21:04 | 43.65909 | -79.43700 | 5012 ft | 250 kts | 75° |
| 2026-05-07 21:04 | 43.66637 | -79.41556 | 5020 ft | 245 kts | 53° |
| 2026-05-07 21:05 | 43.67625 | -79.39667 | 5006 ft | 246 kts | 50° |
| 2026-05-07 21:05 | 43.68661 | -79.37778 | 5006 ft | 246 kts | 50° |
| 2026-05-07 21:05 | 43.69699 | -79.35896 | 5000 ft | 246 kts | 50° |
| 2026-05-07 21:05 | 43.70742 | -79.34011 | 5033 ft | 246 kts | 50° |
| 2026-05-07 21:06 | 43.71873 | -79.32272 | 4996 ft | 239 kts | 31° |
| 2026-05-07 21:06 | 43.73371 | -79.31485 | 4952 ft | 234 kts | 0° |
| 2026-05-07 21:06 | 43.74941 | -79.31878 | 4696 ft | 230 kts | 330° |
| 2026-05-07 21:06 | 43.76276 | -79.33071 | 4438 ft | 227 kts | 321° |
| 2026-05-07 21:07 | 43.77527 | -79.34390 | 4172 ft | 224 kts | 319° |
| 2026-05-07 21:07 | 43.78486 | -79.36014 | 3900 ft | 219 kts | 290° |
| 2026-05-07 21:07 | 43.78646 | -79.38082 | 3663 ft | 218 kts | 263° |
| 2026-05-07 21:07 | 43.78371 | -79.40115 | 3435 ft | 217 kts | 260° |
| 2026-05-07 21:08 | 43.78073 | -79.42154 | 3271 ft | 214 kts | 259° |
| 2026-05-07 21:08 | 43.77723 | -79.44111 | 3108 ft | 204 kts | 246° |
| 2026-05-07 21:08 | 43.76938 | -79.45663 | 3019 ft | 190 kts | 235° |
| 2026-05-07 21:08 | 43.76153 | -79.47063 | 3053 ft | 183 kts | 233° |
| 2026-05-07 21:09 | 43.75300 | -79.48399 | 2888 ft | 188 kts | 230° |
| 2026-05-07 21:09 | 43.74394 | -79.49726 | 2638 ft | 188 kts | 230° |
| 2026-05-07 21:09 | 43.73515 | -79.51002 | 2410 ft | 180 kts | 230° |
| 2026-05-07 21:09 | 43.72679 | -79.52221 | 2158 ft | 174 kts | 230° |
| 2026-05-07 21:10 | 43.71838 | -79.53444 | 1894 ft | 171 kts | 231° |
| 2026-05-07 21:10 | 43.71062 | -79.54575 | 1659 ft | 156 kts | 230° |
| 2026-05-07 21:10 | 43.70344 | -79.55609 | 1454 ft | 140 kts | 230° |
| 2026-05-07 21:10 | 43.69675 | -79.56579 | 1315 ft | 142 kts | 231° |
| 2026-05-07 21:11 | 43.68987 | -79.57599 | 1094 ft | 147 kts | 233° |
| 2026-05-07 21:11 | 43.68275 | -79.58634 | 876 ft | 147 kts | 230° |
| 2026-05-07 21:11 | 43.66966 | -79.60546 | 570 ft | 122 kts | 226° |
| 2026-05-07 21:12 | 43.66464 | -79.61268 | 570 ft | 86 kts | 226° |
| 2026-05-07 21:12 | 43.66136 | -79.61744 | 573 ft | 51 kts | 226° |
| 2026-05-07 21:12 | 43.66013 | -79.62006 | 572 ft | 15 kts | 249° |
| 2026-05-07 21:12 | 43.66002 | -79.62044 | 570 ft | 6 kts | 249° |
| 2026-05-07 21:13 | 43.65986 | -79.62154 | 571 ft | 14 kts | 278° |
| 2026-05-07 21:13 | 43.66042 | -79.62259 | 573 ft | 14 kts | 316° |
| 2026-05-07 21:13 | 43.66111 | -79.62352 | 571 ft | 14 kts | 316° |
| 2026-05-07 21:13 | 43.66189 | -79.62451 | 572 ft | 16 kts | 318° |
| 2026-05-07 21:14 | 43.66289 | -79.62476 | 569 ft | 16 kts | 27° |
| 2026-05-07 21:14 | 43.66361 | -79.62393 | 570 ft | 13 kts | 41° |
| 2026-05-07 21:14 | 43.66430 | -79.62307 | 576 ft | 13 kts | 42° |
| 2026-05-07 21:14 | 43.66499 | -79.62221 | 574 ft | 13 kts | 42° |
| 2026-05-07 21:15 | 43.66568 | -79.62134 | 577 ft | 13 kts | 42° |
| 2026-05-07 21:15 | 43.66636 | -79.62048 | 574 ft | 13 kts | 42° |
| 2026-05-07 21:15 | 43.66705 | -79.61961 | 578 ft | 13 kts | 43° |
| 2026-05-07 21:15 | 43.66774 | -79.61875 | 578 ft | 14 kts | 42° |
| 2026-05-07 21:16 | 43.66844 | -79.61786 | 578 ft | 14 kts | 42° |
| 2026-05-07 21:16 | 43.66915 | -79.61697 | 580 ft | 14 kts | 42° |
| 2026-05-07 21:16 | 43.66985 | -79.61609 | 577 ft | 14 kts | 42° |
| 2026-05-07 21:16 | 43.67056 | -79.61519 | 577 ft | 14 kts | 43° |
| 2026-05-07 21:17 | 43.67130 | -79.61425 | 577 ft | 15 kts | 42° |
| 2026-05-07 21:17 | 43.67197 | -79.61327 | 577 ft | 11 kts | 52° |
| 2026-05-07 21:17 | 43.67255 | -79.61264 | 575 ft | 12 kts | 5° |
| 2026-05-07 21:17 | 43.67326 | -79.61325 | 574 ft | 12 kts | 317° |
| 2026-05-07 21:18 | 43.67388 | -79.61407 | 573 ft | 12 kts | 316° |
| 2026-05-07 21:18 | 43.67451 | -79.61489 | 570 ft | 12 kts | 316° |
| 2026-05-07 21:18 | 43.67515 | -79.61571 | 576 ft | 13 kts | 316° |
| 2026-05-07 21:18 | 43.67578 | -79.61653 | 574 ft | 13 kts | 317° |
| 2026-05-07 21:19 | 43.67642 | -79.61736 | 574 ft | 13 kts | 316° |
| 2026-05-07 21:19 | 43.67705 | -79.61819 | 575 ft | 13 kts | 316° |
| 2026-05-07 21:19 | 43.67768 | -79.61901 | 574 ft | 13 kts | 316° |
| 2026-05-07 21:19 | 43.67832 | -79.61985 | 572 ft | 13 kts | 316° |
| 2026-05-07 21:20 | 43.67901 | -79.62050 | 574 ft | 12 kts | 346° |
| 2026-05-07 21:20 | 43.67971 | -79.62007 | 574 ft | 8 kts | 58° |
| 2026-05-07 21:20 | 43.67977 | -79.61950 | 566 ft | 6 kts | 90° |
| 2026-05-07 21:20 | 43.67972 | -79.61884 | 574 ft | 8 kts | 98° |
| 2026-05-07 21:21 | 43.67966 | -79.61831 | 571 ft | 5 kts | 98° |
| 2026-05-07 21:21 | 43.67963 | -79.61803 | 571 ft | 0 kts | 99° |
| 2026-05-07 21:21 | 43.67963 | -79.61802 | 571 ft | 0 kts | 99° |